TimeCDT,TemperatureF,Dew PointF,Humidity,Sea Level PressureIn,VisibilityMPH,Wind Direction,Wind SpeedMPH,Gust SpeedMPH,PrecipitationIn,Events,Conditions,WindDirDegrees,DateUTC
12:56 AM,45.0,30.0,56,29.97,10.0,NW,8.1,-,N/A,,Clear,310,2013-03-25 05:56:00
1:56 AM,44.1,30.0,58,29.99,10.0,NW,10.4,-,N/A,,Clear,320,2013-03-25 06:56:00
2:56 AM,42.1,28.9,60,30.01,10.0,NW,12.7,18.4,N/A,,Clear,310,2013-03-25 07:56:00
3:56 AM,39.9,28.0,63,30.01,10.0,NW,10.4,-,N/A,,Clear,310,2013-03-25 08:56:00
4:56 AM,39.0,26.1,60,30.02,10.0,NW,9.2,16.1,N/A,,Clear,320,2013-03-25 09:56:00
5:56 AM,37.0,26.1,65,30.04,10.0,NW,8.1,-,N/A,,Clear,320,2013-03-25 10:56:00
6:56 AM,36.0,26.1,67,30.08,10.0,NW,8.1,-,N/A,,Clear,320,2013-03-25 11:56:00
7:56 AM,39.0,27.0,62,30.11,10.0,NW,12.7,18.4,N/A,,Clear,320,2013-03-25 12:56:00
8:56 AM,41.0,26.1,55,30.13,10.0,NW,13.8,21.9,N/A,,Clear,310,2013-03-25 13:56:00
9:56 AM,45.0,26.1,48,30.14,10.0,NW,11.5,23.0,N/A,,Clear,320,2013-03-25 14:56:00
10:56 AM,48.0,24.1,39,30.13,10.0,NW,11.5,19.6,N/A,,Clear,310,2013-03-25 15:56:00
11:56 AM,52.0,21.9,31,30.14,10.0,NNW,15.0,24.2,N/A,,Clear,330,2013-03-25 16:56:00
12:56 PM,55.9,19.9,25,30.12,10.0,NNW,17.3,26.5,N/A,,Clear,330,2013-03-25 17:56:00
1:56 PM,57.0,16.0,20,30.10,10.0,NW,19.6,31.1,N/A,,Clear,320,2013-03-25 18:56:00
2:56 PM,57.0,17.1,21,30.07,10.0,WNW,15.0,26.5,N/A,,Clear,300,2013-03-25 19:56:00
3:56 PM,57.9,14.0,18,30.06,10.0,WNW,19.6,31.1,N/A,,Clear,300,2013-03-25 20:56:00
4:56 PM,57.0,15.1,19,30.06,10.0,NW,13.8,24.2,N/A,,Clear,320,2013-03-25 21:56:00
5:56 PM,55.0,12.9,19,30.08,10.0,NW,16.1,28.8,N/A,,Clear,310,2013-03-25 22:56:00
6:56 PM,52.0,17.1,25,30.11,10.0,NW,10.4,18.4,N/A,,Clear,320,2013-03-25 23:56:00
7:56 PM,50.0,19.0,29,30.15,10.0,NW,6.9,-,N/A,,Clear,310,2013-03-26 00:56:00
8:56 PM,46.0,23.0,40,30.18,10.0,NNW,8.1,-,N/A,,Clear,340,2013-03-26 01:56:00
9:56 PM,43.0,24.1,47,30.21,10.0,NNW,5.8,-,N/A,,Clear,340,2013-03-26 02:56:00
10:56 PM,41.0,25.0,53,30.22,10.0,North,6.9,-,N/A,,Clear,350,2013-03-26 03:56:00
11:56 PM,39.9,25.0,55,30.23,10.0,NNW,4.6,-,N/A,,Clear,330,2013-03-26 04:56:00